Time;durP1;ratioP1;P1;durP2;ratioP2;P2;SDS_P1;SDS_P2;PMS_P1;PMS_P2;Temp;Humidity;BMP_temperature;BMP_pressure;BME280_temperature;BME280_humidity;BME280_pressure;Samples;Min_cycle;Max_cycle;Signal;HPM_P1;HPM_P2
2021/09/03 00:01:06;;;;;;;0.50;0.40;;;14.40;99.90;;;;;;5005902;28;20444;-82
2021/09/03 00:03:33;;;;;;;0.50;0.30;;;14.30;99.90;;;;;;5006582;28;20268;-81
2021/09/03 00:06:00;;;;;;;0.50;0.40;;;14.30;99.90;;;;;;5005085;28;20451;-81
2021/09/03 00:08:27;;;;;;;0.50;0.40;;;14.20;99.90;;;;;;5006327;28;20440;-81
2021/09/03 00:10:54;;;;;;;0.50;0.30;;;14.20;99.90;;;;;;5005759;28;20458;-81
2021/09/03 00:13:22;;;;;;;0.50;0.33;;;14.20;99.90;;;;;;5006827;28;20447;-81
2021/09/03 00:15:49;;;;;;;0.50;0.40;;;14.10;99.90;;;;;;5006892;28;20479;-81
2021/09/03 00:18:16;;;;;;;0.50;0.30;;;14.10;99.90;;;;;;5009581;28;20199;-81
2021/09/03 00:20:42;;;;;;;0.50;0.40;;;14.10;99.90;;;;;;5009791;28;20428;-78
2021/09/03 00:23:09;;;;;;;0.50;0.30;;;14.10;99.90;;;;;;5005746;28;20677;-80
2021/09/03 00:25:36;;;;;;;0.50;0.30;;;14.00;99.90;;;;;;5004977;28;20444;-80
2021/09/03 00:28:03;;;;;;;0.50;0.30;;;13.90;99.90;;;;;;5004796;28;20454;-81
2021/09/03 00:30:31;;;;;;;0.50;0.40;;;13.90;99.90;;;;;;5005428;28;20205;-80
2021/09/03 00:32:58;;;;;;;0.50;0.40;;;13.90;99.90;;;;;;5004711;28;20892;-80
2021/09/03 00:35:25;;;;;;;0.50;0.35;;;13.90;99.90;;;;;;5005636;28;20475;-81
2021/09/03 00:37:51;;;;;;;0.50;0.40;;;13.80;99.90;;;;;;5004466;28;20234;-80
2021/09/03 00:40:18;;;;;;;0.50;0.40;;;13.80;99.90;;;;;;5004224;28;20226;-80
2021/09/03 00:42:45;;;;;;;2.35;2.15;;;13.90;99.90;;;;;;5005305;28;20262;-78
2021/09/03 00:45:12;;;;;;;0.50;0.40;;;14.00;99.90;;;;;;5005343;28;20200;-80
2021/09/03 00:47:40;;;;;;;0.50;0.40;;;14.00;99.90;;;;;;5004694;28;20227;-80
2021/09/03 00:50:08;;;;;;;0.50;0.30;;;14.00;99.90;;;;;;5005561;28;20203;-80
2021/09/03 00:52:36;;;;;;;0.50;0.33;;;14.00;99.90;;;;;;5005377;28;20447;-81
2021/09/03 00:55:03;;;;;;;0.50;0.40;;;14.00;99.90;;;;;;5005208;28;20511;-81
2021/09/03 00:57:30;;;;;;;0.50;0.40;;;14.00;99.90;;;;;;5005829;28;20600;-81
2021/09/03 00:59:57;;;;;;;0.50;0.30;;;14.00;99.90;;;;;;5004183;28;20445;-80
2021/09/03 01:02:24;;;;;;;0.50;0.33;;;14.00;99.90;;;;;;5003428;28;20453;-81
2021/09/03 01:04:53;;;;;;;0.50;0.40;;;14.00;99.90;;;;;;5005067;28;20450;-80
2021/09/03 01:07:20;;;;;;;0.50;0.40;;;14.00;99.90;;;;;;5004703;28;20456;-80
2021/09/03 01:09:47;;;;;;;0.50;0.37;;;14.00;99.90;;;;;;5004393;28;20447;-80
2021/09/03 01:12:15;;;;;;;0.50;0.40;;;14.00;99.90;;;;;;5004459;28;20445;-81
2021/09/03 01:14:42;;;;;;;0.50;0.40;;;13.90;99.90;;;;;;5005163;28;20459;-80
2021/09/03 01:17:09;;;;;;;0.50;0.30;;;13.90;99.90;;;;;;5004174;28;20487;-81
2021/09/03 01:19:36;;;;;;;0.50;0.30;;;13.90;99.90;;;;;;5004488;28;20436;-81
2021/09/03 01:22:04;;;;;;;0.50;0.40;;;13.90;99.90;;;;;;5003763;28;20544;-80
2021/09/03 01:24:31;;;;;;;0.50;0.40;;;13.90;99.90;;;;;;5005091;28;20454;-80
2021/09/03 01:26:58;;;;;;;0.50;0.30;;;13.90;99.90;;;;;;5004231;28;20466;-80
2021/09/03 01:29:25;;;;;;;0.50;0.40;;;13.90;99.90;;;;;;5003976;28;20704;-80
2021/09/03 01:31:51;;;;;;;0.50;0.40;;;13.90;99.90;;;;;;5003435;28;20201;-80
2021/09/03 01:34:18;;;;;;;0.77;0.77;;;13.80;99.90;;;;;;5004926;28;20436;-80
2021/09/03 01:36:45;;;;;;;0.50;0.40;;;13.80;99.90;;;;;;5004060;28;20480;-80
2021/09/03 01:39:13;;;;;;;0.50;0.40;;;13.80;99.90;;;;;;5003746;28;20455;-80
2021/09/03 01:41:40;;;;;;;0.50;0.40;;;13.70;99.90;;;;;;5002780;28;20440;-80
2021/09/03 01:44:08;;;;;;;0.50;0.30;;;13.70;99.90;;;;;;5002378;28;20197;-80
2021/09/03 01:46:35;;;;;;;0.50;0.40;;;13.70;99.90;;;;;;5002865;28;20464;-80
2021/09/03 01:49:01;;;;;;;0.50;0.40;;;13.70;99.90;;;;;;5002418;28;20452;-79
2021/09/03 01:51:29;;;;;;;0.50;0.30;;;13.70;99.90;;;;;;5002954;28;20449;-79
2021/09/03 01:53:55;;;;;;;0.50;0.40;;;13.70;99.90;;;;;;5002801;28;20527;-80
2021/09/03 01:56:24;;;;;;;0.50;0.40;;;13.70;99.90;;;;;;5004000;28;20484;-80
2021/09/03 01:58:50;;;;;;;0.50;0.40;;;13.70;99.90;;;;;;5003156;28;20619;-80
2021/09/03 02:01:17;;;;;;;0.50;0.30;;;13.70;99.90;;;;;;5002776;28;20448;-79
2021/09/03 02:03:44;;;;;;;0.50;0.40;;;13.70;99.90;;;;;;5003414;28;20927;-80
2021/09/03 02:06:11;;;;;;;0.50;0.40;;;13.70;99.90;;;;;;5003490;28;20213;-79
2021/09/03 02:08:37;;;;;;;0.50;0.40;;;13.60;99.90;;;;;;5004194;28;20444;-80
2021/09/03 02:11:04;;;;;;;0.50;0.37;;;13.60;99.90;;;;;;5003245;28;20200;-81
2021/09/03 02:13:32;;;;;;;0.50;0.40;;;13.60;99.90;;;;;;5003813;28;20458;-80
2021/09/03 02:15:59;;;;;;;0.50;0.30;;;13.60;99.90;;;;;;5003469;28;20487;-80
2021/09/03 02:18:26;;;;;;;0.50;0.40;;;13.60;99.90;;;;;;5003455;28;20455;-81
2021/09/03 02:20:52;;;;;;;0.50;0.40;;;13.50;99.90;;;;;;5010152;28;20188;-79
2021/09/03 02:23:19;;;;;;;0.50;0.40;;;13.50;99.90;;;;;;5003566;28;20438;-80
2021/09/03 02:25:46;;;;;;;1.00;1.00;;;13.50;99.90;;;;;;5002652;28;20436;-81
2021/09/03 02:28:15;;;;;;;0.50;0.40;;;13.50;99.90;;;;;;5003001;28;20888;-81
2021/09/03 02:30:43;;;;;;;0.50;0.40;;;13.50;99.90;;;;;;5002141;28;20869;-81
2021/09/03 02:33:10;;;;;;;0.50;0.40;;;13.40;99.90;;;;;;5003434;28;20531;-81
2021/09/03 02:35:36;;;;;;;0.50;0.40;;;13.50;99.90;;;;;;5003494;28;20543;-78
2021/09/03 02:38:03;;;;;;;2.33;2.23;;;13.50;99.90;;;;;;5002520;28;20459;-81
2021/09/03 02:40:30;;;;;;;0.50;0.30;;;13.50;99.90;;;;;;5002501;28;20474;-80
2021/09/03 02:42:57;;;;;;;0.50;0.40;;;13.50;99.90;;;;;;5002514;28;20290;-80
2021/09/03 02:45:24;;;;;;;0.50;0.40;;;13.50;99.90;;;;;;5002043;28;20444;-80
2021/09/03 02:47:52;;;;;;;0.50;0.40;;;13.50;99.90;;;;;;5003220;28;20463;-81
2021/09/03 02:50:19;;;;;;;0.50;0.40;;;13.50;99.90;;;;;;5002466;28;20206;-80
2021/09/03 02:52:46;;;;;;;0.50;0.37;;;13.50;99.90;;;;;;5002242;28;20440;-80
2021/09/03 02:55:13;;;;;;;0.50;0.38;;;13.50;99.90;;;;;;5003917;28;20448;-81
2021/09/03 02:57:40;;;;;;;0.50;0.40;;;13.50;99.90;;;;;;5001937;28;20225;-78
2021/09/03 03:00:09;;;;;;;0.50;0.30;;;13.40;99.90;;;;;;5002412;28;20448;-80
2021/09/03 03:02:36;;;;;;;0.50;0.33;;;13.40;99.90;;;;;;5003037;28;20215;-80
2021/09/03 03:05:05;;;;;;;0.50;0.30;;;13.40;99.90;;;;;;5002951;28;20934;-80
2021/09/03 03:07:32;;;;;;;0.50;0.40;;;13.40;99.90;;;;;;5002268;28;20723;-81
2021/09/03 03:09:59;;;;;;;0.50;0.40;;;13.30;99.90;;;;;;5002508;28;20530;-81
2021/09/03 03:12:26;;;;;;;0.50;0.33;;;13.30;99.90;;;;;;5001975;28;20808;-80
2021/09/03 03:14:53;;;;;;;0.50;0.40;;;13.20;99.90;;;;;;5001642;28;20448;-80
2021/09/03 03:17:20;;;;;;;0.50;0.40;;;13.20;99.90;;;;;;5002271;28;20480;-81
2021/09/03 03:19:46;;;;;;;0.50;0.40;;;13.20;99.90;;;;;;5002205;28;20452;-80
2021/09/03 03:22:14;;;;;;;0.50;0.30;;;13.20;99.90;;;;;;5001812;28;20451;-80
2021/09/03 03:24:41;;;;;;;0.50;0.30;;;13.20;99.90;;;;;;5001782;28;20433;-80
2021/09/03 03:27:08;;;;;;;0.50;0.40;;;13.20;99.90;;;;;;5001799;28;20516;-79
2021/09/03 03:29:35;;;;;;;0.50;0.40;;;13.20;99.90;;;;;;5000747;28;20878;-81
2021/09/03 03:32:02;;;;;;;0.50;0.40;;;13.20;99.90;;;;;;5001271;28;20197;-80
2021/09/03 03:34:29;;;;;;;0.50;0.40;;;13.20;99.90;;;;;;5001240;28;20202;-80
2021/09/03 03:36:56;;;;;;;0.53;0.47;;;13.20;99.90;;;;;;5000639;28;20484;-81
2021/09/03 03:39:24;;;;;;;0.50;0.40;;;13.20;99.90;;;;;;5001032;28;20444;-79
2021/09/03 03:41:52;;;;;;;0.50;0.40;;;13.20;99.90;;;;;;4999413;28;20446;-80
2021/09/03 03:44:19;;;;;;;0.50;0.40;;;13.20;99.90;;;;;;4999536;28;20662;-81
2021/09/03 03:46:46;;;;;;;0.50;0.30;;;13.10;99.90;;;;;;4999409;28;20252;-80
2021/09/03 03:49:13;;;;;;;1.98;1.85;;;13.10;99.90;;;;;;5000997;28;20205;-79
2021/09/03 03:51:40;;;;;;;0.50;0.40;;;13.10;99.90;;;;;;4999767;28;20200;-78
2021/09/03 03:54:07;;;;;;;0.50;0.30;;;13.10;99.90;;;;;;4998270;28;20457;-79
2021/09/03 03:56:35;;;;;;;0.50;0.50;;;13.10;99.90;;;;;;4999251;28;20484;-81
2021/09/03 03:59:02;;;;;;;0.50;0.40;;;13.10;99.90;;;;;;4999515;28;20464;-81
2021/09/03 04:01:28;;;;;;;0.50;0.40;;;13.10;99.90;;;;;;4999047;28;20200;-79
2021/09/03 04:03:55;;;;;;;1.75;1.65;;;13.00;99.90;;;;;;4999744;28;20205;-80
2021/09/03 04:06:22;;;;;;;0.50;0.40;;;13.00;99.90;;;;;;5000040;28;20247;-80
2021/09/03 04:08:48;;;;;;;0.50;0.40;;;13.00;99.90;;;;;;4998516;28;20225;-79
2021/09/03 04:11:15;;;;;;;0.50;0.40;;;12.90;99.90;;;;;;4999688;28;20655;-79
2021/09/03 04:13:43;;;;;;;0.50;0.40;;;12.90;99.90;;;;;;4998777;28;20214;-80
2021/09/03 04:16:10;;;;;;;0.50;0.40;;;12.90;99.90;;;;;;4999823;28;20232;-80
2021/09/03 04:18:38;;;;;;;0.50;0.30;;;12.80;99.90;;;;;;4998378;28;20209;-79
2021/09/03 04:21:05;;;;;;;0.50;0.35;;;12.80;99.90;;;;;;4999408;28;20213;-79
2021/09/03 04:23:32;;;;;;;0.50;0.30;;;12.80;99.90;;;;;;4999656;28;20199;-79
2021/09/03 04:25:59;;;;;;;0.50;0.40;;;12.70;99.90;;;;;;5000071;28;20842;-80
2021/09/03 04:28:26;;;;;;;0.50;0.40;;;12.60;99.90;;;;;;5000190;28;20224;-79
2021/09/03 04:30:54;;;;;;;0.50;0.37;;;12.60;99.90;;;;;;4998986;28;20446;-80
2021/09/03 04:33:20;;;;;;;0.50;0.35;;;12.60;99.90;;;;;;5000145;28;20440;-80
2021/09/03 04:35:47;;;;;;;0.50;0.40;;;12.60;99.90;;;;;;5000984;28;20202;-79
2021/09/03 04:38:14;;;;;;;0.50;0.40;;;12.60;99.90;;;;;;5000865;28;20464;-78
2021/09/03 04:40:41;;;;;;;0.50;0.40;;;12.60;99.90;;;;;;5000835;28;20440;-80
2021/09/03 04:43:07;;;;;;;0.50;0.40;;;12.50;99.90;;;;;;5000487;28;20444;-79
2021/09/03 04:45:34;;;;;;;0.50;0.40;;;12.60;99.90;;;;;;5001919;28;20850;-79
2021/09/03 04:48:02;;;;;;;0.50;0.40;;;12.50;99.90;;;;;;5005374;28;20717;-78
2021/09/03 04:50:30;;;;;;;0.50;0.40;;;12.50;99.90;;;;;;5004199;28;20216;-79
2021/09/03 04:52:56;;;;;;;0.50;0.40;;;12.40;99.90;;;;;;5004757;28;20458;-79
2021/09/03 04:55:23;;;;;;;0.50;0.40;;;12.40;99.90;;;;;;5004023;28;20447;-78
2021/09/03 04:57:50;;;;;;;0.50;0.30;;;12.40;99.90;;;;;;5003337;28;20682;-80
2021/09/03 05:00:18;;;;;;;0.50;0.30;;;12.40;99.90;;;;;;4999032;28;20200;-78
2021/09/03 05:02:45;;;;;;;0.50;0.40;;;12.40;99.90;;;;;;4999880;28;20205;-79
2021/09/03 05:05:13;;;;;;;0.50;0.40;;;12.40;99.90;;;;;;5008682;28;20197;-79
2021/09/03 05:07:41;;;;;;;0.50;0.40;;;12.40;99.90;;;;;;5014601;28;20566;-78
2021/09/03 05:10:09;;;;;;;0.50;0.40;;;12.50;99.90;;;;;;5008439;28;20208;-79
2021/09/03 05:12:38;;;;;;;0.50;0.40;;;12.50;99.90;;;;;;5018530;28;20240;-82
2021/09/03 05:15:09;;;;;;;0.50;0.40;;;12.50;99.90;;;;;;5024284;28;20434;-78
2021/09/03 05:17:36;;;;;;;0.50;0.40;;;12.60;99.90;;;;;;5014870;28;20487;-78
2021/09/03 05:20:03;;;;;;;0.50;0.40;;;12.70;99.90;;;;;;5001452;28;20204;-80
2021/09/03 05:22:32;;;;;;;0.50;0.30;;;12.70;99.90;;;;;;4999595;28;20193;-77
2021/09/03 05:24:59;;;;;;;0.50;0.35;;;12.70;99.90;;;;;;5001123;28;20259;-79
2021/09/03 05:27:26;;;;;;;0.50;0.40;;;12.80;99.90;;;;;;5004299;28;20232;-79
2021/09/03 05:29:53;;;;;;;0.50;0.40;;;13.00;99.90;;;;;;5005924;28;20558;-79
2021/09/03 05:32:20;;;;;;;0.50;0.40;;;13.10;99.90;;;;;;5005783;28;20307;-79
2021/09/03 05:34:47;;;;;;;0.50;0.40;;;13.20;99.90;;;;;;5005350;28;20212;-80
2021/09/03 05:37:13;;;;;;;0.50;0.40;;;13.30;99.90;;;;;;5004492;28;20551;-80
2021/09/03 05:39:42;;;;;;;0.50;0.40;;;13.40;99.90;;;;;;5004672;28;20451;-79
2021/09/03 05:42:10;;;;;;;0.90;0.90;;;13.50;99.90;;;;;;5002514;28;20451;-79
2021/09/03 05:44:37;;;;;;;0.93;0.60;;;13.60;99.90;;;;;;5002350;28;20452;-79
2021/09/03 05:47:04;;;;;;;0.50;0.40;;;13.70;99.90;;;;;;5001506;28;20464;-78
2021/09/03 05:49:31;;;;;;;0.50;0.30;;;13.80;99.90;;;;;;5002046;28;20444;-80
2021/09/03 05:51:58;;;;;;;0.50;0.40;;;13.90;99.90;;;;;;5000911;28;20205;-79
2021/09/03 05:54:25;;;;;;;0.50;0.40;;;14.40;99.90;;;;;;5000571;28;20448;-78
2021/09/03 05:56:53;;;;;;;0.50;0.30;;;15.20;99.90;;;;;;5000078;28;20480;-79
2021/09/03 05:59:21;;;;;;;0.50;0.40;;;16.40;99.90;;;;;;5000457;28;20440;-79
2021/09/03 06:01:47;;;;;;;1.17;1.17;;;17.60;99.90;;;;;;5008654;28;20452;-79
2021/09/03 06:04:14;;;;;;;0.50;0.40;;;18.80;99.90;;;;;;5006054;28;20544;-80
2021/09/03 06:06:41;;;;;;;0.50;0.30;;;19.70;99.90;;;;;;5022933;28;20462;-78
2021/09/03 06:09:08;;;;;;;0.50;0.40;;;20.60;99.90;;;;;;5022847;28;20443;-80
2021/09/03 06:11:35;;;;;;;3.33;3.03;;;21.50;99.90;;;;;;5021519;28;20465;-80
2021/09/03 06:14:03;;;;;;;0.50;0.30;;;22.40;99.90;;;;;;5022614;28;20520;-80
2021/09/03 06:16:30;;;;;;;0.80;0.70;;;23.20;99.90;;;;;;5023707;28;20474;-79
2021/09/03 06:18:57;;;;;;;0.60;0.60;;;24.00;99.90;;;;;;5004873;28;20544;-81
2021/09/03 06:21:23;;;;;;;0.50;0.30;;;24.70;99.90;;;;;;5015836;28;20435;-79
2021/09/03 06:23:50;;;;;;;0.50;0.40;;;25.40;99.90;;;;;;5022508;28;20446;-79
2021/09/03 06:26:17;;;;;;;0.60;0.50;;;25.70;99.90;;;;;;5022777;28;20501;-80
2021/09/03 06:28:44;;;;;;;0.50;0.30;;;26.10;99.90;;;;;;5022240;28;20786;-79
2021/09/03 06:31:12;;;;;;;0.50;0.30;;;26.70;99.90;;;;;;5022093;28;20446;-81
2021/09/03 06:33:39;;;;;;;0.50;0.30;;;27.00;99.90;;;;;;5022324;28;20535;-79
2021/09/03 06:36:06;;;;;;;0.50;0.30;;;27.20;99.90;;;;;;5023960;28;20495;-79
2021/09/03 06:38:33;;;;;;;0.50;0.33;;;27.50;98.10;;;;;;5023389;28;20498;-80
2021/09/03 06:40:59;;;;;;;0.50;0.30;;;27.90;98.20;;;;;;5012630;28;20455;-80
2021/09/03 06:43:26;;;;;;;0.50;0.30;;;28.30;93.80;;;;;;5020495;28;20449;-79
2021/09/03 06:45:53;;;;;;;0.50;0.30;;;28.60;93.30;;;;;;5020905;28;20447;-79
2021/09/03 06:48:23;;;;;;;0.50;0.30;;;28.60;91.70;;;;;;5021750;28;20445;-80
2021/09/03 06:50:50;;;;;;;0.97;0.97;;;29.20;91.20;;;;;;5021592;28;20968;-79
2021/09/03 06:53:17;;;;;;;0.50;0.30;;;29.80;88.00;;;;;;5021583;28;20453;-80
2021/09/03 06:55:44;;;;;;;0.50;0.30;;;30.50;88.60;;;;;;5020842;28;20448;-80
2021/09/03 06:58:10;;;;;;;0.50;0.30;;;31.00;80.90;;;;;;5022521;28;20515;-80
2021/09/03 07:00:37;;;;;;;0.50;0.30;;;31.30;78.60;;;;;;5022636;28;20464;-80
2021/09/03 07:03:04;;;;;;;0.50;0.30;;;31.80;75.90;;;;;;5018094;28;21305;-78
2021/09/03 07:05:32;;;;;;;0.50;0.30;;;32.10;75.90;;;;;;5023361;28;20451;-79
2021/09/03 07:07:59;;;;;;;2.10;2.00;;;32.80;73.80;;;;;;5021187;28;20455;-80
2021/09/03 07:10:26;;;;;;;0.50;0.30;;;33.60;70.10;;;;;;5021933;28;20443;-81
2021/09/03 07:12:52;;;;;;;0.50;0.30;;;33.50;67.40;;;;;;5021889;28;20441;-80
2021/09/03 07:15:19;;;;;;;0.40;0.30;;;33.90;65.80;;;;;;5021591;28;20453;-80
2021/09/03 07:17:46;;;;;;;1.00;1.00;;;34.60;64.90;;;;;;5013652;28;20484;-80
2021/09/03 07:20:13;;;;;;;0.77;0.77;;;34.60;62.80;;;;;;5001496;28;20547;-80
2021/09/03 07:22:42;;;;;;;0.43;0.30;;;34.70;61.90;;;;;;5001686;28;20455;-80
2021/09/03 07:25:10;;;;;;;0.50;0.50;;;35.20;63.00;;;;;;4990548;28;20470;-81
2021/09/03 07:27:37;;;;;;;0.40;0.30;;;35.80;62.70;;;;;;4997176;28;20456;-79
2021/09/03 07:30:05;;;;;;;0.40;0.30;;;36.00;59.90;;;;;;5002887;28;20447;-81
2021/09/03 07:32:35;;;;;;;0.43;0.40;;;36.70;59.30;;;;;;5009004;28;20445;-81
2021/09/03 07:35:02;;;;;;;0.40;0.30;;;37.40;58.00;;;;;;5005505;28;20467;-80
2021/09/03 07:37:28;;;;;;;0.40;0.30;;;37.80;57.50;;;;;;5006197;28;20498;-81
2021/09/03 07:39:57;;;;;;;0.40;0.30;;;38.40;55.70;;;;;;5005640;28;20445;-80
2021/09/03 07:42:23;;;;;;;0.40;0.30;;;38.60;54.80;;;;;;5004323;28;20439;-81
2021/09/03 07:44:50;;;;;;;0.40;0.30;;;38.80;54.90;;;;;;5002705;28;20442;-80
2021/09/03 07:47:17;;;;;;;0.40;0.30;;;38.70;53.20;;;;;;5003159;28;20476;-80
2021/09/03 07:49:44;;;;;;;0.40;0.30;;;38.90;54.00;;;;;;5003796;28;20471;-83
2021/09/03 07:52:10;;;;;;;0.40;0.30;;;38.90;52.50;;;;;;5003198;28;20450;-81
2021/09/03 07:54:37;;;;;;;0.40;0.37;;;38.60;53.00;;;;;;5005722;28;20439;-81
2021/09/03 07:57:05;;;;;;;0.40;0.30;;;37.60;52.30;;;;;;5015660;28;20461;-80
2021/09/03 07:59:32;;;;;;;0.40;0.30;;;36.90;53.00;;;;;;5020892;28;20969;-81
2021/09/03 08:01:59;;;;;;;0.40;0.37;;;36.50;53.70;;;;;;5023336;28;20508;-80
2021/09/03 08:04:26;;;;;;;0.40;0.30;;;36.70;53.20;;;;;;5024070;28;20448;-80
2021/09/03 08:06:53;;;;;;;0.40;0.30;;;36.90;54.40;;;;;;5023139;28;20470;-81
2021/09/03 08:09:19;;;;;;;0.50;0.40;;;36.30;53.80;;;;;;5021553;28;21024;-80
2021/09/03 08:11:46;;;;;;;0.40;0.30;;;35.90;55.10;;;;;;5022251;28;20450;-80
2021/09/03 08:14:14;;;;;;;0.40;0.30;;;36.50;55.10;;;;;;5023823;28;20463;-81
2021/09/03 08:16:41;;;;;;;0.40;0.30;;;37.50;55.50;;;;;;5023135;28;20540;-77
2021/09/03 08:19:08;;;;;;;1.43;1.17;;;38.20;53.80;;;;;;5004504;28;20535;-81
2021/09/03 08:21:35;;;;;;;0.40;0.30;;;38.70;51.90;;;;;;4998244;28;20440;-80
2021/09/03 08:24:02;;;;;;;0.40;0.30;;;39.50;51.70;;;;;;5006564;28;20866;-80
2021/09/03 08:26:29;;;;;;;0.40;0.30;;;39.80;51.40;;;;;;5007087;28;20458;-80
2021/09/03 08:28:56;;;;;;;0.40;0.30;;;39.70;49.90;;;;;;5005821;28;20479;-81
2021/09/03 08:31:24;;;;;;;0.40;0.30;;;39.60;51.00;;;;;;5006616;28;20440;-81
2021/09/03 08:33:51;;;;;;;0.40;0.30;;;39.10;49.60;;;;;;5005661;28;20443;-77
2021/09/03 08:36:18;;;;;;;0.40;0.30;;;38.40;50.60;;;;;;5006017;28;20478;-79
2021/09/03 08:38:45;;;;;;;0.40;0.30;;;37.90;51.50;;;;;;5006301;28;20446;-79
2021/09/03 08:41:12;;;;;;;0.40;0.30;;;37.80;52.80;;;;;;5005699;28;20451;-79
2021/09/03 08:43:38;;;;;;;0.40;0.30;;;38.30;52.80;;;;;;5004701;28;20446;-79
2021/09/03 08:46:07;;;;;;;0.40;0.30;;;38.30;52.20;;;;;;5005884;28;20485;-81
2021/09/03 08:48:36;;;;;;;0.40;0.30;;;38.50;53.00;;;;;;5006151;28;20476;-81
2021/09/03 08:51:03;;;;;;;0.70;0.70;;;39.30;51.50;;;;;;4986176;23;20504;-81
2021/09/03 08:53:30;;;;;;;0.40;0.30;;;39.00;52.10;;;;;;4972553;28;20805;-81
2021/09/03 08:55:57;;;;;;;0.40;0.30;;;39.90;52.10;;;;;;4980957;28;20436;-82
2021/09/03 08:58:25;;;;;;;0.40;0.30;;;40.40;51.50;;;;;;4973981;28;20475;-82
2021/09/03 09:01:05;;;;;;;1.27;1.13;;;41.10;51.20;;;;;;4980474;28;21077;-82
2021/09/03 09:03:36;;;;;;;0.40;0.30;;;41.90;50.80;;;;;;4981498;28;20441;-79
2021/09/03 09:06:03;;;;;;;0.40;0.30;;;42.50;49.00;;;;;;4980790;28;20990;-81
2021/09/03 09:08:31;;;;;;;0.40;0.30;;;42.90;48.40;;;;;;4978229;28;20484;-81
2021/09/03 09:11:00;;;;;;;0.40;0.40;;;43.40;48.50;;;;;;4980414;28;20490;-81
2021/09/03 09:13:30;;;;;;;0.40;0.30;;;43.30;48.30;;;;;;4980213;28;20814;-81
2021/09/03 09:16:09;;;;;;;0.70;0.70;;;42.80;46.40;;;;;;4979999;28;20452;-80
2021/09/03 09:18:44;;;;;;;0.40;0.30;;;42.90;46.70;;;;;;4979206;28;20433;-80
2021/09/03 09:21:23;;;;;;;0.40;0.30;;;42.60;48.00;;;;;;4979512;28;20465;-80
2021/09/03 09:23:53;;;;;;;0.40;0.30;;;42.40;45.60;;;;;;4977807;28;20455;-80
2021/09/03 09:26:22;;;;;;;0.40;0.30;;;41.00;47.10;;;;;;4979765;28;20448;-81
2021/09/03 09:28:49;;;;;;;0.40;0.30;;;41.00;50.00;;;;;;4980289;28;20480;-80
2021/09/03 09:31:29;;;;;;;0.40;0.30;;;41.00;48.00;;;;;;4978357;28;20465;-81
2021/09/03 09:33:58;;;;;;;0.40;0.30;;;41.00;47.00;;;;;;4978477;28;20425;-80
2021/09/03 09:36:32;;;;;;;0.40;0.30;;;40.90;47.50;;;;;;4978718;28;20437;-79
2021/09/03 09:39:00;;;;;;;2.00;0.60;;;40.60;48.30;;;;;;4979242;28;20802;-81
2021/09/03 09:41:26;;;;;;;0.40;0.30;;;41.40;47.40;;;;;;4978561;28;20445;-79
2021/09/03 09:43:53;;;;;;;0.40;0.30;;;40.50;46.80;;;;;;4978767;28;20449;-80
2021/09/03 09:46:22;;;;;;;0.40;0.30;;;40.20;47.60;;;;;;4978094;28;20885;-80
2021/09/03 09:49:06;;;;;;;0.40;0.30;;;40.50;49.10;;;;;;4964338;28;20489;-80
2021/09/03 09:51:36;;;;;;;0.40;0.30;;;40.90;48.40;;;;;;4972862;28;20439;-80
2021/09/03 09:54:05;;;;;;;0.40;0.30;;;40.60;47.00;;;;;;4978137;28;20511;-81
2021/09/03 09:56:35;;;;;;;0.40;0.30;;;40.90;47.60;;;;;;4977549;28;20444;-81
2021/09/03 09:59:03;;;;;;;0.40;0.30;;;41.10;49.90;;;;;;4976971;28;20437;-78
2021/09/03 10:01:32;;;;;;;0.40;0.30;;;41.90;47.80;;;;;;4976680;28;20440;-80
2021/09/03 10:04:05;;;;;;;0.40;0.30;;;42.00;45.60;;;;;;4976613;28;20540;-80
2021/09/03 10:06:34;;;;;;;0.40;0.30;;;41.80;48.20;;;;;;4976113;28;20445;-81
2021/09/03 10:09:02;;;;;;;0.40;0.30;;;42.10;47.40;;;;;;4977402;28;21076;-77
2021/09/03 10:11:30;;;;;;;0.60;0.50;;;42.40;45.10;;;;;;4978802;28;20812;-81
2021/09/03 10:13:57;;;;;;;0.40;0.30;;;42.30;45.10;;;;;;4978206;28;20813;-80
2021/09/03 10:16:24;;;;;;;0.40;0.30;;;42.20;47.50;;;;;;4978555;28;20450;-81
2021/09/03 10:18:56;;;;;;;0.40;0.30;;;42.30;46.70;;;;;;4978793;28;20719;-81
2021/09/03 10:21:27;;;;;;;0.50;0.30;;;42.50;45.70;;;;;;4978603;28;21001;-80
2021/09/03 10:23:57;;;;;;;0.40;0.30;;;42.40;47.10;;;;;;4978982;28;20448;-81
2021/09/03 10:26:26;;;;;;;0.40;0.30;;;43.00;48.30;;;;;;4978769;28;20446;-80
2021/09/03 10:29:19;;;;;;;0.40;0.40;;;43.40;44.50;;;;;;4978568;28;20472;-81
2021/09/03 10:32:21;;;;;;;0.40;0.30;;;43.50;44.60;;;;;;4959511;28;20456;-80
2021/09/03 10:35:01;;;;;;;0.40;0.30;;;42.40;44.40;;;;;;4978455;28;20440;-80
2021/09/03 10:37:32;;;;;;;0.80;0.70;;;42.30;46.70;;;;;;4978422;28;20495;-80
2021/09/03 10:40:04;;;;;;;0.40;0.30;;;41.80;45.60;;;;;;4977901;28;20444;-81
2021/09/03 10:42:56;;;;;;;0.40;0.30;;;41.70;45.30;;;;;;4977762;28;20495;-80
2021/09/03 10:45:26;;;;;;;0.40;0.30;;;41.30;45.30;;;;;;4977785;28;20433;-80
2021/09/03 10:48:04;;;;;;;0.40;0.30;;;41.30;47.00;;;;;;4977909;28;20459;-81
2021/09/03 10:50:32;;;;;;;0.40;0.30;;;41.30;47.00;;;;;;4976989;28;20476;-81
2021/09/03 10:53:20;;;;;;;0.40;0.30;;;41.80;48.90;;;;;;4978162;28;21021;-80
2021/09/03 10:55:49;;;;;;;0.40;0.30;;;41.60;44.10;;;;;;4978333;28;20429;-80
2021/09/03 10:58:30;;;;;;;2.00;1.90;;;40.00;45.00;;;;;;4978268;28;20448;-78
2021/09/03 11:01:45;;;;;;;0.40;0.30;;;39.60;46.30;;;;;;4978305;28;20780;-81
2021/09/03 11:04:14;;;;;;;0.40;0.30;;;39.80;47.70;;;;;;4978274;28;20425;-80
2021/09/03 11:06:48;;;;;;;0.40;0.30;;;40.50;47.10;;;;;;4977410;28;20862;-80
2021/09/03 11:09:25;;;;;;;0.40;0.30;;;40.50;48.20;;;;;;4978360;28;20495;-80
2021/09/03 11:11:54;;;;;;;0.40;0.30;;;41.20;47.40;;;;;;4977113;28;20489;-81
2021/09/03 11:14:23;;;;;;;0.40;0.30;;;41.80;45.90;;;;;;4978402;28;20488;-81
2021/09/03 11:16:54;;;;;;;0.40;0.30;;;41.80;44.60;;;;;;4978070;28;20836;-81
2021/09/03 11:19:23;;;;;;;0.40;0.30;;;42.00;45.20;;;;;;4977404;28;20429;-81
2021/09/03 11:21:53;;;;;;;0.57;0.30;;;41.60;44.50;;;;;;4976965;28;20445;-78
2021/09/03 11:24:23;;;;;;;0.40;0.30;;;39.90;44.60;;;;;;4977469;28;20440;-80
2021/09/03 11:26:52;;;;;;;0.40;0.30;;;38.20;46.70;;;;;;4977218;28;20455;-80
2021/09/03 11:29:22;;;;;;;0.40;0.30;;;38.40;47.30;;;;;;4977473;28;20498;-81
2021/09/03 11:32:05;;;;;;;0.40;0.40;;;38.90;47.60;;;;;;4977637;28;20932;-80
2021/09/03 11:34:57;;;;;;;0.40;0.30;;;39.10;48.80;;;;;;4977652;28;20431;-81
2021/09/03 11:37:30;;;;;;;0.40;0.30;;;39.00;47.80;;;;;;4959168;28;20505;-80
2021/09/03 11:40:04;;;;;;;0.40;0.30;;;38.70;47.80;;;;;;4977487;28;20492;-81
2021/09/03 11:42:33;;;;;;;0.40;0.30;;;38.70;48.40;;;;;;4977007;28;20428;-81
2021/09/03 11:45:02;;;;;;;0.40;0.30;;;39.40;51.00;;;;;;4977795;28;20449;-81
2021/09/03 11:47:35;;;;;;;0.40;0.30;;;39.80;48.90;;;;;;4978508;28;20448;-81
2021/09/03 11:50:07;;;;;;;0.40;0.30;;;39.50;49.60;;;;;;4978291;28;20484;-80
2021/09/03 11:52:34;;;;;;;0.40;0.30;;;38.80;47.70;;;;;;4977448;28;20427;-80
2021/09/03 11:55:02;;;;;;;0.40;0.30;;;39.30;49.40;;;;;;4981325;28;20445;-81
2021/09/03 11:57:29;;;;;;;0.40;0.30;;;40.00;49.00;;;;;;4981137;28;20454;-81
2021/09/03 11:59:58;;;;;;;0.40;0.30;;;39.70;46.40;;;;;;4980816;28;20461;-80
2021/09/03 12:02:27;;;;;;;0.40;0.30;;;39.90;48.50;;;;;;4981582;28;20447;-81
2021/09/03 12:04:55;;;;;;;0.70;0.70;;;40.50;46.80;;;;;;4987658;28;20475;-80
2021/09/03 12:07:23;;;;;;;0.40;0.30;;;40.60;46.60;;;;;;4982213;28;20444;-81
2021/09/03 12:09:55;;;;;;;0.90;0.90;;;40.70;46.70;;;;;;4980656;28;20994;-81
2021/09/03 12:12:26;;;;;;;0.40;0.30;;;41.50;47.30;;;;;;4981172;28;20480;-81
2021/09/03 12:14:55;;;;;;;0.40;0.30;;;41.30;45.50;;;;;;4981548;28;20473;-81
2021/09/03 12:17:22;;;;;;;0.40;0.30;;;40.80;46.10;;;;;;4982276;28;20449;-81
2021/09/03 12:19:49;;;;;;;1.60;1.50;;;41.10;47.40;;;;;;4981849;28;20551;-81
2021/09/03 12:22:19;;;;;;;0.50;0.50;;;41.00;45.70;;;;;;4980840;28;20456;-81
2021/09/03 12:24:49;;;;;;;0.40;0.30;;;41.00;46.60;;;;;;4980876;28;20436;-81
2021/09/03 12:27:16;;;;;;;0.40;0.30;;;40.60;46.90;;;;;;4981057;28;20449;-79
2021/09/03 12:29:44;;;;;;;0.40;0.30;;;39.40;46.20;;;;;;4980433;28;20858;-80
2021/09/03 12:32:12;;;;;;;0.40;0.30;;;38.50;48.90;;;;;;4980789;28;20452;-80
2021/09/03 12:34:39;;;;;;;0.40;0.30;;;37.30;49.60;;;;;;4981164;28;20442;-80
2021/09/03 12:37:10;;;;;;;0.73;0.73;;;36.20;51.60;;;;;;4981294;28;20539;-79
2021/09/03 12:39:40;;;;;;;0.50;0.30;;;35.50;54.00;;;;;;4980602;28;20489;-80
2021/09/03 12:42:14;;;;;;;0.50;0.30;;;35.10;54.30;;;;;;4980109;28;20448;-78
2021/09/03 12:44:40;;;;;;;0.40;0.30;;;35.90;55.70;;;;;;4982389;28;20445;-80
2021/09/03 12:47:09;;;;;;;0.50;0.30;;;36.20;54.30;;;;;;4981980;28;20784;-81
2021/09/03 12:49:38;;;;;;;0.47;0.30;;;35.90;54.20;;;;;;4980865;28;20482;-80
2021/09/03 12:52:12;;;;;;;0.50;0.30;;;35.30;52.70;;;;;;4980175;28;20457;-81
2021/09/03 12:54:39;;;;;;;0.50;0.30;;;34.80;55.20;;;;;;4979899;28;20916;-81